Adams, Oregon
Current Conditions -  °F | °C
As of 7:53 AM on Wednesday 22 Oct 2014 (Local Time) from KPDT Reporting Station
Overcast Overcast  
Wind Chill: 58°   Ceiling: 7000
Heat Index: 58°   Visibility: 10mi
Dew Point: 38°   Wind: 7mph
Humidity: 47%   Direction: 180°S
Pressure: 29.88"   Gusts: NA
Location:  45.77°N, 118.56°W
Report Text: KPDT 221453Z 18006KT 10SM OVC070 14/03 A2988 RMK AO2 RAB1356E06 SLP110 P0000 60000 T01440033 55001
Loading
Personal Weather Stations






























Interactive Weather Map
Tropical Storm Tracking
New forecast layout! Learn more

10-Day Weather Forecast

Advertisements
Track Severe Weather on mobile